Time;durP1;ratioP1;P1;durP2;ratioP2;P2;SDS_P1;SDS_P2;PMS_P1;PMS_P2;Temp;Humidity;BMP_temperature;BMP_pressure;BME280_temperature;BME280_humidity;BME280_pressure;Samples;Min_cycle;Max_cycle;Signal;HPM_P1;HPM_P2
2020/12/18 00:01:28;;;;;;;20.17;9.80;;;;;;;4.62;100.00;94066.78;6154286;23;20018;-88
2020/12/18 00:03:55;;;;;;;13.85;5.97;;;;;;;4.59;100.00;94064.56;6154215;23;20018;-87
2020/12/18 00:06:22;;;;;;;19.65;8.88;;;;;;;4.55;100.00;94056.41;6153901;23;20017;-87
2020/12/18 00:08:49;;;;;;;27.15;8.80;;;;;;;4.60;100.00;94066.16;6154519;23;20017;-87
2020/12/18 00:11:22;;;;;;;23.45;7.60;;;;;;;4.58;100.00;94059.63;6154311;23;20028;-88
2020/12/18 00:13:49;;;;;;;14.65;7.25;;;;;;;4.53;100.00;94060.88;6154644;23;20029;-89
2020/12/18 00:16:16;;;;;;;20.70;7.07;;;;;;;4.51;100.00;94055.13;6153898;23;20022;-88
2020/12/18 00:18:43;;;;;;;19.73;8.50;;;;;;;4.43;100.00;94046.66;6153912;23;20018;-87
2020/12/18 00:21:09;;;;;;;22.52;8.02;;;;;;;4.51;100.00;94065.31;6154236;23;20022;-87
2020/12/18 00:23:36;;;;;;;16.00;7.13;;;;;;;4.49;100.00;94064.66;6154333;23;20021;-87
2020/12/18 00:26:02;;;;;;;25.30;8.98;;;;;;;4.46;100.00;94056.53;6153784;23;20459;-87
2020/12/18 00:28:28;;;;;;;17.42;6.47;;;;;;;4.24;100.00;94068.78;6153937;23;20462;-87
2020/12/18 00:30:55;;;;;;;17.45;6.30;;;;;;;4.22;99.69;94063.84;6153800;23;20022;-88
2020/12/18 00:33:23;;;;;;;20.00;8.50;;;;;;;4.14;99.69;94066.34;6154021;23;20075;-87
2020/12/18 00:35:50;;;;;;;15.55;6.32;;;;;;;3.95;100.00;94047.81;6153997;23;20021;-87
2020/12/18 00:38:16;;;;;;;18.05;8.18;;;;;;;4.10;100.00;94065.03;6153955;23;20024;-87
2020/12/18 00:40:43;;;;;;;15.35;6.28;;;;;;;4.10;100.00;94058.22;6155876;23;20040;-87
2020/12/18 00:43:09;;;;;;;20.38;6.35;;;;;;;4.09;100.00;94064.25;6155975;23;20017;-88
2020/12/18 00:45:36;;;;;;;19.42;7.60;;;;;;;4.13;100.00;94065.53;6156170;23;20040;-88
2020/12/18 00:48:02;;;;;;;13.73;6.53;;;;;;;4.12;100.00;94063.16;6156033;23;20026;-87
2020/12/18 00:50:30;;;;;;;22.98;7.72;;;;;;;4.11;100.00;94064.91;6156282;23;20067;-87
2020/12/18 00:52:56;;;;;;;18.33;7.32;;;;;;;4.03;100.00;94056.41;6155622;23;20037;-88
2020/12/18 00:55:22;;;;;;;15.32;7.50;;;;;;;4.05;100.00;94064.69;6155681;23;20031;-87
2020/12/18 00:57:49;;;;;;;16.20;6.60;;;;;;;3.96;100.00;94048.59;6155720;23;20024;-87
2020/12/18 01:00:17;;;;;;;15.20;6.45;;;;;;;4.09;100.00;94059.19;6155345;23;20022;-87
2020/12/18 01:02:44;;;;;;;18.73;6.78;;;;;;;4.02;100.00;94058.16;6155498;23;20021;-87
2020/12/18 01:05:11;;;;;;;15.85;7.03;;;;;;;4.04;100.00;94063.09;6155195;23;20565;-88
2020/12/18 01:07:38;;;;;;;17.52;6.10;;;;;;;4.06;100.00;94062.00;6155848;23;20017;-87
2020/12/18 01:10:05;;;;;;;15.77;7.10;;;;;;;4.07;100.00;94058.50;6155817;23;20025;-87
2020/12/18 01:12:32;;;;;;;19.42;7.70;;;;;;;4.00;100.00;94049.88;6148925;23;20017;-87
2020/12/18 01:14:58;;;;;;;20.20;7.30;;;;;;;4.06;100.00;94058.66;6155311;23;20459;-87
2020/12/18 01:17:24;;;;;;;14.85;6.65;;;;;;;4.04;100.00;94060.56;6155591;23;20048;-87
2020/12/18 01:19:51;;;;;;;15.35;5.95;;;;;;;4.03;100.00;94058.97;6155527;23;20021;-87
2020/12/18 01:22:17;;;;;;;19.10;6.15;;;;;;;4.05;100.00;94060.41;6155436;23;20029;-87
2020/12/18 01:24:45;;;;;;;16.70;6.05;;;;;;;4.05;100.00;94060.41;6155441;23;20021;-87
2020/12/18 01:27:11;;;;;;;14.82;6.38;;;;;;;3.74;100.00;94065.88;6155547;23;20029;-87
2020/12/18 01:29:38;;;;;;;21.13;10.30;;;;;;;3.20;100.00;94059.84;6155059;23;20021;-87
2020/12/18 01:32:04;;;;;;;16.33;7.10;;;;;;;3.11;100.00;94055.63;6155381;23;20025;-87
2020/12/18 01:34:31;;;;;;;12.50;7.30;;;;;;;3.29;100.00;94053.09;6155114;23;20466;-87
2020/12/18 01:36:57;;;;;;;18.40;6.18;;;;;;;3.39;100.00;94054.78;6155651;23;20320;-88
2020/12/18 01:39:24;;;;;;;16.38;7.55;;;;;;;3.32;100.00;94049.47;6155139;23;20021;-88
2020/12/18 01:41:51;;;;;;;16.08;5.82;;;;;;;3.45;100.00;94046.59;6155227;23;20390;-87
2020/12/18 01:44:17;;;;;;;13.90;6.82;;;;;;;3.57;100.00;94054.78;6155490;23;20519;-87
2020/12/18 01:46:44;;;;;;;11.95;6.45;;;;;;;3.58;100.00;94056.38;6154861;23;20017;-87
2020/12/18 01:49:11;;;;;;;13.80;5.55;;;;;;;3.58;100.00;94053.84;6155223;23;20021;-87
2020/12/18 01:51:38;;;;;;;17.80;6.53;;;;;;;3.60;100.00;94047.69;6157907;23;20033;-87
2020/12/18 01:54:05;;;;;;;13.63;5.78;;;;;;;3.64;100.00;94058.34;6155044;23;20509;-88
2020/12/18 01:56:32;;;;;;;14.10;6.43;;;;;;;3.55;100.00;94054.13;6155008;23;20021;-87
2020/12/18 01:58:59;;;;;;;15.40;5.32;;;;;;;3.51;100.00;94052.84;6155425;23;20017;-88
2020/12/18 02:01:25;;;;;;;11.50;6.95;;;;;;;3.47;100.00;94050.56;6155147;23;20026;-87
2020/12/18 02:03:53;;;;;;;17.98;6.57;;;;;;;3.54;100.00;94055.88;6155345;23;20029;-87
2020/12/18 02:06:21;;;;;;;15.32;6.75;;;;;;;3.56;100.00;94053.19;6155139;23;20026;-90
2020/12/18 02:08:49;;;;;;;11.63;5.32;;;;;;;3.56;100.00;94055.75;6155312;23;20100;-87
2020/12/18 02:11:20;;;;;;;18.95;7.22;;;;;;;3.57;100.00;94054.78;6154925;23;20022;-87
2020/12/18 02:13:47;;;;;;;15.57;5.95;;;;;;;3.58;100.00;94041.94;6155078;23;20025;-87
2020/12/18 02:16:16;;;;;;;16.38;6.38;;;;;;;3.57;100.00;94045.41;6154868;23;20022;-88
2020/12/18 02:18:43;;;;;;;18.30;7.05;;;;;;;3.57;100.00;94047.19;6155008;23;20029;-87
2020/12/18 02:21:09;;;;;;;17.25;5.90;;;;;;;3.56;100.00;94041.28;6155402;23;20021;-87
2020/12/18 02:23:39;;;;;;;11.20;5.05;;;;;;;3.53;100.00;94040.78;6155510;23;20021;-86
2020/12/18 02:26:08;;;;;;;16.45;7.53;;;;;;;3.58;100.00;94051.31;6154797;23;20072;-87
2020/12/18 02:28:37;;;;;;;13.75;6.80;;;;;;;3.60;100.00;94052.75;6154753;23;20092;-87
2020/12/18 02:31:04;;;;;;;16.58;5.88;;;;;;;3.51;100.00;94048.53;6154777;23;20029;-87
2020/12/18 02:33:31;;;;;;;9.48;4.82;;;;;;;3.42;100.00;94040.03;6155133;23;20056;-89
2020/12/18 02:35:58;;;;;;;16.10;6.28;;;;;;;3.54;100.00;94050.81;6155267;23;20096;-88
2020/12/18 02:38:25;;;;;;;16.88;7.28;;;;;;;3.52;100.00;94051.88;6155062;23;20028;-87
2020/12/18 02:40:52;;;;;;;20.90;7.50;;;;;;;3.24;100.00;94021.47;6154951;23;20021;-87
2020/12/18 02:43:20;;;;;;;17.40;7.90;;;;;;;3.37;100.00;94051.59;6155385;23;20022;-88
2020/12/18 02:45:47;;;;;;;23.67;6.22;;;;;;;3.32;100.00;94052.81;6155134;23;20028;-87
2020/12/18 02:48:13;;;;;;;24.63;7.68;;;;;;;3.32;100.00;94055.34;6154760;23;20338;-88
2020/12/18 02:50:40;;;;;;;12.45;4.13;;;;;;;3.23;100.00;94055.44;6154750;23;20024;-87
2020/12/18 02:53:13;;;;;;;11.98;5.13;;;;;;;3.23;100.00;94056.22;6154406;23;20459;-87
2020/12/18 02:55:39;;;;;;;11.85;6.20;;;;;;;3.09;100.00;94042.25;6154370;23;20466;-89
2020/12/18 02:58:06;;;;;;;20.95;6.10;;;;;;;3.14;100.00;94046.94;6154421;23;20480;-88
2020/12/18 03:00:33;;;;;;;11.30;4.57;;;;;;;3.19;100.00;94055.69;6154641;23;20028;-88
2020/12/18 03:03:00;;;;;;;11.57;6.43;;;;;;;3.22;100.00;94049.53;6154488;23;20053;-88
2020/12/18 03:05:26;;;;;;;11.25;4.03;;;;;;;3.19;100.00;94047.28;6154719;23;20021;-87
2020/12/18 03:07:53;;;;;;;13.48;6.15;;;;;;;3.18;100.00;94049.03;6154848;23;20024;-87
2020/12/18 03:10:19;;;;;;;10.80;4.43;;;;;;;3.16;100.00;94050.13;6154311;23;20022;-87
2020/12/18 03:12:45;;;;;;;12.73;5.32;;;;;;;3.10;100.00;94048.16;6154615;23;20025;-87
2020/12/18 03:15:12;;;;;;;16.85;5.63;;;;;;;3.09;100.00;94056.72;6154922;23;20040;-87
2020/12/18 03:17:39;;;;;;;8.45;5.45;;;;;;;3.00;100.00;94053.28;6154853;23;20021;-88
2020/12/18 03:20:06;;;;;;;7.85;3.80;;;;;;;3.03;100.00;94056.34;6154359;23;20072;-87
2020/12/18 03:22:32;;;;;;;7.85;3.55;;;;;;;2.97;100.00;94056.09;6154653;23;20017;-87
2020/12/18 03:24:59;;;;;;;18.30;6.07;;;;;;;2.96;100.00;94057.81;6154831;23;20022;-88
2020/12/18 03:27:25;;;;;;;10.70;4.40;;;;;;;2.82;100.00;94073.53;6154208;23;20017;-87
2020/12/18 03:29:52;;;;;;;14.80;4.28;;;;;;;2.62;100.00;94061.72;6154637;23;20029;-87
2020/12/18 03:32:18;;;;;;;18.10;5.95;;;;;;;2.44;100.00;94065.94;6154000;23;20021;-88
2020/12/18 03:34:46;;;;;;;11.55;5.57;;;;;;;2.29;100.00;94061.28;6153904;23;20478;-87
2020/12/18 03:37:12;;;;;;;8.88;5.70;;;;;;;2.22;100.00;94070.38;6153747;23;20346;-90
2020/12/18 03:39:38;;;;;;;14.25;5.47;;;;;;;2.12;100.00;94066.13;6154201;23;20021;-87
2020/12/18 03:42:05;;;;;;;12.35;6.90;;;;;;;2.16;100.00;94063.34;6154736;23;20021;-88
2020/12/18 03:44:31;;;;;;;15.10;6.13;;;;;;;2.15;100.00;94070.13;6154684;23;20473;-87
2020/12/18 03:46:58;;;;;;;10.98;4.95;;;;;;;2.19;100.00;94060.50;6154366;23;20463;-88
2020/12/18 03:49:24;;;;;;;17.90;6.70;;;;;;;2.38;100.00;94074.88;6154662;23;20029;-88
2020/12/18 03:51:51;;;;;;;15.50;7.40;;;;;;;2.42;100.00;94068.59;6154953;23;20018;-88
2020/12/18 03:54:18;;;;;;;6.47;3.50;;;;;;;2.52;100.00;94073.63;6154941;23;20021;-87
2020/12/18 03:56:44;;;;;;;14.40;5.85;;;;;;;2.54;100.00;94072.56;6154713;23;20454;-87
2020/12/18 03:59:11;;;;;;;10.52;4.68;;;;;;;2.56;100.00;94077.50;6154556;23;20017;-88
2020/12/18 04:01:37;;;;;;;10.95;5.03;;;;;;;2.61;100.00;94075.34;6155903;23;20057;-87
2020/12/18 04:04:04;;;;;;;16.75;5.95;;;;;;;2.61;100.00;94077.88;6154708;23;20027;-88
2020/12/18 04:06:30;;;;;;;12.07;5.55;;;;;;;2.63;100.00;94086.16;6156640;23;20338;-87
2020/12/18 04:08:57;;;;;;;10.88;5.07;;;;;;;2.66;100.00;94085.88;6155937;23;20480;-87
2020/12/18 04:11:24;;;;;;;12.50;5.45;;;;;;;2.67;100.00;94089.19;6157005;23;20018;-87
2020/12/18 04:13:50;;;;;;;8.25;4.07;;;;;;;2.64;100.00;94086.97;6156387;23;20083;-88
2020/12/18 04:16:17;;;;;;;13.25;7.80;;;;;;;2.54;100.00;94077.63;6156738;23;20021;-87
2020/12/18 04:18:48;;;;;;;12.38;5.72;;;;;;;2.64;100.00;94081.88;6157221;23;20021;-87
2020/12/18 04:21:14;;;;;;;15.73;7.50;;;;;;;2.63;100.00;94080.25;6157230;23;20025;-88
2020/12/18 04:27:29;;;;;;;10.73;3.63;;;;;;;2.67;100.00;94081.59;6157988;23;20569;-87
2020/12/18 04:29:56;;;;;;;12.10;6.78;;;;;;;2.66;100.00;94082.53;6157651;23;20022;-87
2020/12/18 04:32:22;;;;;;;14.30;5.93;;;;;;;2.55;100.00;94078.44;6158687;23;20029;-87
2020/12/18 04:34:49;;;;;;;9.23;4.75;;;;;;;2.56;100.00;94086.84;6157554;23;20021;-87
2020/12/18 04:37:46;;;;;;;9.48;4.60;;;;;;;2.52;100.00;94082.06;6158072;23;20024;-88
2020/12/18 04:40:41;;;;;;;6.78;4.65;;;;;;;2.52;100.00;94086.31;6157655;23;20018;-87
2020/12/18 04:46:37;;;;;;;8.32;4.25;;;;;;;2.37;100.00;94091.81;6157752;23;20032;-87
2020/12/18 04:49:05;;;;;;;11.48;5.43;;;;;;;2.27;100.00;94083.47;6156921;23;20018;-87
2020/12/18 04:51:31;;;;;;;7.35;3.78;;;;;;;2.19;100.00;94083.31;6157578;23;20024;-86
2020/12/18 04:54:36;;;;;;;7.65;3.05;;;;;;;2.21;100.00;94089.84;6157349;23;20041;-87
2020/12/18 04:57:03;;;;;;;12.95;4.35;;;;;;;2.10;100.00;94088.28;6157752;23;20334;-87
2020/12/18 04:59:33;;;;;;;10.05;3.35;;;;;;;1.84;100.00;94066.03;6158827;23;20026;-87
2020/12/18 05:02:13;;;;;;;9.18;3.55;;;;;;;1.92;100.00;94083.09;6157421;23;20024;-87
2020/12/18 05:08:01;;;;;;;6.65;3.97;;;;;;;2.07;100.00;94101.22;6157587;23;20470;-87
2020/12/18 05:10:28;;;;;;;9.10;4.70;;;;;;;2.06;100.00;94104.69;6157455;23;20076;-87
2020/12/18 05:12:54;;;;;;;8.02;3.72;;;;;;;2.02;100.00;94098.28;6157583;23;20096;-87
2020/12/18 05:15:20;;;;;;;8.55;3.92;;;;;;;2.04;100.00;94104.00;6157588;23;20026;-87
2020/12/18 05:17:51;;;;;;;10.95;4.63;;;;;;;1.98;100.00;94102.81;6157233;23;20075;-87
2020/12/18 05:20:18;;;;;;;7.43;4.18;;;;;;;1.95;100.00;94094.69;6157494;23;20022;-88
2020/12/18 05:22:45;;;;;;;7.70;3.60;;;;;;;1.96;100.00;94114.03;6157040;23;20022;-89
2020/12/18 05:25:38;;;;;;;8.45;5.25;;;;;;;1.94;100.00;94109.09;6157026;23;20140;-88
2020/12/18 05:28:05;;;;;;;9.75;3.95;;;;;;;1.92;100.00;94116.03;6157041;23;20454;-88
2020/12/18 05:30:33;;;;;;;7.45;3.33;;;;;;;1.86;100.00;94121.63;6157654;23;20018;-87
2020/12/18 05:33:00;;;;;;;6.45;3.50;;;;;;;1.84;100.00;94124.28;6157482;23;20025;-87
2020/12/18 05:35:26;;;;;;;5.55;3.08;;;;;;;1.87;100.00;94118.16;6157586;23;20021;-88
2020/12/18 05:37:53;;;;;;;4.15;3.10;;;;;;;1.81;100.00;94131.38;6157974;23;20383;-87
2020/12/18 05:40:19;;;;;;;4.60;2.22;;;;;;;1.76;100.00;94121.59;6156819;23;20022;-87
2020/12/18 05:42:47;;;;;;;5.05;4.07;;;;;;;1.72;100.00;94123.63;6157002;23;20018;-87
2020/12/18 05:45:15;;;;;;;6.97;4.00;;;;;;;1.66;100.00;94131.75;6149689;23;20021;-87
2020/12/18 05:47:59;;;;;;;11.25;4.15;;;;;;;1.69;100.00;94128.16;6157672;23;20047;-87
2020/12/18 05:50:31;;;;;;;5.35;3.00;;;;;;;1.65;100.00;94132.69;6157027;23;20077;-87
2020/12/18 05:52:59;;;;;;;10.40;4.45;;;;;;;1.62;100.00;94129.63;6158362;23;20021;-87
2020/12/18 05:55:37;;;;;;;4.30;3.22;;;;;;;1.61;100.00;94138.94;6157457;23;20021;-87
2020/12/18 05:58:14;;;;;;;6.05;3.70;;;;;;;1.60;100.00;94133.09;6156843;23;20033;-87
2020/12/18 06:00:42;;;;;;;5.57;2.88;;;;;;;1.54;100.00;94130.28;6156802;23;20025;-87
2020/12/18 06:03:10;;;;;;;5.32;3.13;;;;;;;1.61;100.00;94146.53;6156807;23;20025;-88
2020/12/18 06:05:39;;;;;;;7.18;3.45;;;;;;;1.62;100.00;94142.28;6156862;23;20458;-87
2020/12/18 06:08:19;;;;;;;7.18;2.88;;;;;;;1.60;100.00;94138.16;6156783;23;20072;-88
2020/12/18 06:14:18;;;;;;;7.65;4.65;;;;;;;1.49;100.00;94142.50;6156991;23;20071;-88
2020/12/18 06:16:46;;;;;;;12.70;5.63;;;;;;;1.48;100.00;94151.84;6156810;23;20017;-87
2020/12/18 06:19:15;;;;;;;9.70;4.72;;;;;;;1.48;100.00;94156.91;6156718;23;20028;-87
2020/12/18 06:25:21;;;;;;;6.10;4.70;;;;;;;1.48;100.00;94161.97;6095970;23;20030;-87
2020/12/18 06:31:26;;;;;;;9.10;4.35;;;;;;;1.41;100.00;94153.28;6095595;23;20101;-87
2020/12/18 06:33:54;;;;;;;17.20;4.60;;;;;;;1.54;100.00;94166.53;6095484;23;20018;-87
2020/12/18 06:36:57;;;;;;;8.50;4.38;;;;;;;1.64;100.00;94165.72;6095314;23;20523;-87
2020/12/18 06:39:25;;;;;;;7.45;4.50;;;;;;;1.61;100.00;94166.78;6095540;23;20022;-87
2020/12/18 06:42:21;;;;;;;7.30;4.15;;;;;;;1.59;100.00;94161.06;6107897;23;20024;-87
2020/12/18 06:44:49;;;;;;;11.73;3.20;;;;;;;1.72;100.00;94155.75;6157959;23;20335;-87
2020/12/18 06:47:31;;;;;;;7.78;4.45;;;;;;;1.73;100.00;94154.81;6157921;23;20054;-88
2020/12/18 06:53:25;;;;;;;6.45;2.88;;;;;;;1.76;100.00;94164.69;6156562;23;20024;-88
2020/12/18 06:55:52;;;;;;;12.05;5.22;;;;;;;1.79;100.00;94169.50;6156355;23;20028;-89
2020/12/18 06:58:20;;;;;;;11.32;5.18;;;;;;;1.77;100.00;94156.16;6157181;23;20025;-88
2020/12/18 07:00:51;;;;;;;7.25;4.82;;;;;;;1.74;99.14;94181.75;6156193;23;20018;-88
2020/12/18 07:03:45;;;;;;;13.30;4.88;;;;;;;1.59;98.34;94183.84;6157425;23;20022;-88
2020/12/18 07:09:42;;;;;;;12.00;6.13;;;;;;;1.51;100.00;94173.56;6156468;23;20076;-89
2020/12/18 07:12:10;;;;;;;10.70;6.32;;;;;;;1.55;100.00;94172.38;6156328;23;20469;-89
2020/12/18 07:14:37;;;;;;;12.77;7.22;;;;;;;1.64;100.00;94184.28;6156899;23;20029;-89
2020/12/18 07:17:31;;;;;;;19.92;9.20;;;;;;;1.58;99.95;94183.03;6156323;23;20036;-88
2020/12/18 07:23:11;;;;;;;21.85;8.32;;;;;;;1.49;100.00;94171.19;6156736;23;20096;-88
2020/12/18 07:25:38;;;;;;;;;;;;;;;1.56;100.00;94184.09;6157110;23;20319;-88
2020/12/18 07:28:20;;;;;;;13.55;6.47;;;;;;;1.47;100.00;94178.09;6157588;23;19920;-88
2020/12/18 07:34:08;;;;;;;22.58;8.20;;;;;;;1.69;100.00;94188.94;6156278;23;20056;-88
2020/12/18 07:36:35;;;;;;;17.17;8.20;;;;;;;1.45;100.00;94169.84;6157095;23;20088;-89
2020/12/18 07:39:01;;;;;;;15.98;8.50;;;;;;;1.27;100.00;94188.16;6156230;23;20022;-88
2020/12/18 07:41:30;;;;;;;19.88;8.38;;;;;;;1.18;100.00;94187.22;6156126;23;20068;-88
2020/12/18 07:44:04;;;;;;;15.40;7.50;;;;;;;1.27;100.00;94193.22;6156431;23;20025;-88
2020/12/18 07:50:16;;;;;;;19.08;9.05;;;;;;;1.46;100.00;94199.28;6158221;23;20027;-88
2020/12/18 07:56:21;;;;;;;25.85;8.77;;;;;;;1.57;100.00;94195.84;6158294;23;20398;-89
2020/12/18 07:58:50;;;;;;;19.23;8.43;;;;;;;1.57;100.00;94190.78;6157658;23;20028;-88
2020/12/18 08:01:34;;;;;;;20.95;8.25;;;;;;;1.50;100.00;94187.97;6158110;23;20037;-88
2020/12/18 08:04:19;;;;;;;20.38;9.10;;;;;;;1.61;100.00;94194.66;6157837;23;20026;-89
2020/12/18 08:06:45;;;;;;;32.13;10.73;;;;;;;1.71;100.00;94194.69;6158131;23;20026;-89
2020/12/18 08:09:13;;;;;;;16.25;7.72;;;;;;;1.83;100.00;94198.69;6158043;23;20022;-88
2020/12/18 08:11:52;;;;;;;15.73;7.95;;;;;;;1.76;100.00;94200.13;6158438;23;20096;-89
2020/12/18 08:14:19;;;;;;;19.45;8.93;;;;;;;1.49;100.00;94204.09;6159145;23;20022;-89
2020/12/18 08:16:46;;;;;;;20.23;8.00;;;;;;;1.47;100.00;94193.28;6158743;23;20080;-88
2020/12/18 08:19:13;;;;;;;18.65;8.15;;;;;;;1.53;100.00;94209.69;6159170;23;20025;-89
2020/12/18 08:21:41;;;;;;;17.75;8.80;;;;;;;1.40;100.00;94180.34;6157860;23;20021;-88
2020/12/18 08:27:46;;;;;;;21.00;11.02;;;;;;;1.86;100.00;94200.97;6157858;23;20072;-88
2020/12/18 08:30:14;;;;;;;24.35;10.90;;;;;;;2.09;100.00;94205.00;6159539;23;20025;-89
2020/12/18 08:32:52;;;;;;;26.33;12.50;;;;;;;2.27;100.00;94205.94;6157810;23;20029;-89
2020/12/18 08:35:21;;;;;;;24.83;9.38;;;;;;;2.24;99.49;94192.72;6158733;23;20018;-89
2020/12/18 08:37:48;;;;;;;18.17;9.98;;;;;;;2.44;100.00;94201.13;6158977;23;20024;-89
2020/12/18 08:40:19;;;;;;;25.33;9.93;;;;;;;2.53;99.17;94204.56;6157996;23;20343;-89
2020/12/18 08:42:58;;;;;;;27.48;9.90;;;;;;;2.65;99.83;94195.88;6158289;23;20021;-89
2020/12/18 08:48:52;;;;;;;33.13;14.80;;;;;;;2.83;99.73;94190.13;6157994;23;20027;-89
2020/12/18 08:51:18;;;;;;;21.70;10.27;;;;;;;2.79;97.47;94197.19;6158976;23;20032;-88
2020/12/18 08:53:45;;;;;;;19.88;9.73;;;;;;;2.66;96.57;94199.22;6157507;23;20343;-89
2020/12/18 08:56:11;;;;;;;;;;;;;;;2.67;97.44;94195.75;6157372;23;20024;-88
2020/12/18 08:58:37;;;;;;;18.23;6.72;;;;;;;2.61;97.27;94191.22;6157414;23;20326;-88
2020/12/18 09:01:03;;;;;;;24.23;9.60;;;;;;;2.66;97.71;94189.06;6158201;23;20025;-89
2020/12/18 09:03:40;;;;;;;18.38;8.00;;;;;;;2.78;98.97;94187.19;6157797;23;20346;-89
2020/12/18 09:06:13;;;;;;;22.02;9.07;;;;;;;2.78;97.81;94187.97;6156529;23;20075;-89
2020/12/18 09:09:35;;;;;;;26.90;12.25;;;;;;;2.94;98.87;94176.47;6157389;23;20021;-89
2020/12/18 09:12:14;;;;;;;21.77;10.32;;;;;;;2.94;98.32;94153.63;6157099;23;20022;-89
2020/12/18 09:14:40;;;;;;;27.73;10.85;;;;;;;3.17;97.40;94182.00;6157937;23;20029;-89
2020/12/18 09:17:07;;;;;;;;;;;;;;;3.28;96.35;94180.22;6157850;23;20024;-89
2020/12/18 09:19:33;;;;;;;21.73;9.70;;;;;;;3.27;97.04;94168.44;6157186;23;20325;-89
2020/12/18 09:22:03;;;;;;;30.05;10.77;;;;;;;3.29;94.98;94179.28;6157217;23;20017;-89
2020/12/18 09:27:55;;;;;;;22.38;10.82;;;;;;;3.13;96.10;94164.63;6157399;23;20525;-88
2020/12/18 09:30:23;;;;;;;31.10;12.50;;;;;;;3.18;95.56;94165.81;6157408;23;20021;-89
2020/12/18 09:39:44;;;;;;;29.42;12.75;;;;;;;3.40;96.39;94152.88;6096494;23;20102;-89
2020/12/18 09:42:10;;;;;;;27.33;11.50;;;;;;;3.50;94.68;94160.44;6095742;23;20073;-89
2020/12/18 09:44:36;;;;;;;;;;;;;;;3.68;96.17;94155.41;6096576;23;20029;-89
2020/12/18 09:47:31;;;;;;;26.08;11.20;;;;;;;3.72;94.47;94141.47;6096293;23;19940;-89
2020/12/18 09:49:57;;;;;;;22.20;10.50;;;;;;;3.87;94.90;94144.31;6095459;23;20077;-89
2020/12/18 09:52:24;;;;;;;22.92;11.23;;;;;;;3.98;92.96;94135.69;6095458;23;20022;-89
2020/12/18 09:54:51;;;;;;;24.55;11.35;;;;;;;3.94;92.52;94140.22;6095960;23;20037;-90
2020/12/18 09:57:42;;;;;;;30.45;13.23;;;;;;;3.90;92.67;94141.50;6133280;23;20064;-89
2020/12/18 10:03:48;;;;;;;27.65;14.15;;;;;;;3.52;95.73;94130.63;6157070;23;20056;-89
2020/12/18 10:13:21;;;;;;;24.35;12.00;;;;;;;3.98;92.97;94125.50;6157097;23;20024;-90
2020/12/18 10:19:25;;;;;;;24.33;10.30;;;;;;;2.86;95.58;94092.63;6156928;23;20095;-88
2020/12/18 10:25:20;;;;;;;22.17;9.18;;;;;;;3.13;95.65;94127.34;6157131;23;20067;-88
2020/12/18 10:27:47;;;;;;;24.65;10.15;;;;;;;3.16;95.96;94121.97;6156538;23;20021;-88
2020/12/18 10:30:14;;;;;;;37.53;13.80;;;;;;;3.04;97.50;94118.84;6157630;23;20025;-88
2020/12/18 10:32:41;;;;;;;24.02;11.48;;;;;;;3.05;96.68;94117.09;6156489;23;20026;-88
2020/12/18 10:35:08;;;;;;;26.67;10.77;;;;;;;2.98;97.55;94111.00;6156839;23;20021;-88
2020/12/18 10:37:35;;;;;;;27.58;12.80;;;;;;;2.73;99.42;94108.94;6156880;23;20028;-89
2020/12/18 10:40:01;;;;;;;22.80;11.30;;;;;;;3.11;99.93;94110.66;6157888;23;20021;-89
2020/12/18 10:42:28;;;;;;;30.20;11.52;;;;;;;3.10;99.66;94112.41;6156384;23;20017;-88
2020/12/18 10:48:03;;;;;;;29.45;13.77;;;;;;;2.93;99.36;94093.66;6156707;23;19919;-88
2020/12/18 10:50:31;;;;;;;42.58;12.40;;;;;;;3.01;99.15;94106.44;6156383;23;20451;-88
2020/12/18 10:53:00;;;;;;;35.95;12.43;;;;;;;3.25;98.98;94104.31;6156266;23;20024;-88
2020/12/18 10:55:42;;;;;;;28.42;11.20;;;;;;;3.69;98.78;94093.47;6156458;23;20017;-88
2020/12/18 10:58:10;;;;;;;35.30;13.75;;;;;;;3.62;97.38;94088.19;6157333;23;20029;-88
2020/12/18 11:00:36;;;;;;;36.35;11.95;;;;;;;3.69;97.41;94086.66;6157553;23;20024;-88
2020/12/18 11:03:04;;;;;;;;;;;;;;;4.08;95.97;94092.38;6156817;23;20520;-89
2020/12/18 11:08:57;;;;;;;33.80;15.02;;;;;;;4.47;93.74;94086.91;6156521;23;20168;-89
2020/12/18 11:14:45;;;;;;;36.03;15.90;;;;;;;3.99;96.15;94078.81;6157639;23;20041;-89
2020/12/18 11:17:11;;;;;;;42.13;17.27;;;;;;;3.99;96.04;94069.41;6157960;23;20018;-88
2020/12/18 11:19:39;;;;;;;;;;;;;;;4.02;95.51;94073.41;6159832;23;20141;-88
2020/12/18 11:22:05;;;;;;;28.05;12.52;;;;;;;4.11;95.54;94064.09;6157098;23;19940;-88
2020/12/18 11:24:31;;;;;;;38.65;19.48;;;;;;;4.28;94.92;94070.09;6157290;23;20025;-89
2020/12/18 11:26:57;;;;;;;;;;;;;;;4.35;96.25;94062.69;6157831;23;20021;-91
2020/12/18 11:29:24;;;;;;;46.25;16.40;;;;;;;4.61;95.80;94064.41;6156607;23;20299;-89
2020/12/18 11:31:50;;;;;;;48.83;17.35;;;;;;;4.64;95.26;94069.97;6156698;23;20032;-89
2020/12/18 11:34:16;;;;;;;;;;;;;;;4.46;95.28;94064.16;6156591;23;20018;-89
2020/12/18 11:36:44;;;;;;;73.47;21.17;;;;;;;4.55;95.06;94061.50;6156197;23;20322;-90
2020/12/18 11:39:10;;;;;;;81.47;18.42;;;;;;;4.70;94.91;94062.69;6156143;23;20122;-89
2020/12/18 11:41:36;;;;;;;69.93;21.38;;;;;;;4.71;94.59;94054.91;6157016;23;20017;-89
2020/12/18 11:58:48;;;;;;;65.22;20.80;;;;;;;5.12;93.89;94058.56;6097855;23;20465;-89
2020/12/18 12:01:21;;;;;;;54.10;18.95;;;;;;;4.91;92.69;94059.78;6097312;23;20022;-90
2020/12/18 12:03:48;;;;;;;59.08;21.30;;;;;;;4.75;95.15;94057.94;6098739;23;20022;-89
2020/12/18 12:06:15;;;;;;;75.65;21.45;;;;;;;5.01;95.79;94052.81;6097295;23;20025;-89
2020/12/18 12:09:04;;;;;;;62.25;23.58;;;;;;;5.19;93.79;94062.88;6097614;23;20396;-90
2020/12/18 12:11:36;;;;;;;73.78;23.02;;;;;;;5.28;92.88;94056.03;6097903;23;20094;-89
2020/12/18 12:14:04;;;;;;;54.83;23.88;;;;;;;5.43;92.56;94061.34;6097256;23;20019;-89
2020/12/18 12:16:33;;;;;;;51.45;22.10;;;;;;;5.56;93.88;94055.00;6098672;23;20025;-89
2020/12/18 12:19:00;;;;;;;58.45;23.08;;;;;;;5.74;93.75;94065.06;6097058;23;20019;-90
2020/12/18 12:21:31;;;;;;;;;;;;;;;5.85;93.17;94059.66;6098837;23;20337;-90
2020/12/18 12:27:28;;;;;;;54.25;21.45;;;;;;;5.85;90.82;94057.09;6096011;23;20018;-90
2020/12/18 12:29:56;;;;;;;52.10;19.30;;;;;;;5.75;91.38;94061.56;6097248;23;20535;-90
2020/12/18 12:32:23;;;;;;;56.50;21.30;;;;;;;5.46;92.38;94050.84;6097280;23;20070;-91
2020/12/18 12:34:51;;;;;;;65.93;23.02;;;;;;;5.66;93.23;94052.28;6097558;23;20024;-90
2020/12/18 12:37:18;;;;;;;76.15;25.52;;;;;;;5.46;93.15;94040.66;6098879;23;20029;-90
2020/12/18 12:39:44;;;;;;;;;;;;;;;5.61;93.31;94050.22;6099823;23;20022;-91
2020/12/18 12:53:19;;;;;;;49.42;19.77;;;;;;;5.59;92.88;94040.19;6099007;23;20535;-90
2020/12/18 12:55:47;;;;;;;37.70;16.60;;;;;;;5.39;93.27;94038.88;6098982;23;20020;-90
2020/12/18 13:01:39;;;;;;;44.13;15.77;;;;;;;4.95;96.46;94041.47;6099948;23;20456;-90
2020/12/18 13:04:05;;;;;;;;;;;;;;;4.78;97.40;94038.06;6100743;23;20023;-90
2020/12/18 13:06:32;;;;;;;45.13;15.05;;;;;;;4.75;97.82;94030.75;6098914;23;19918;-89
2020/12/18 13:09:13;;;;;;;30.98;14.73;;;;;;;4.92;97.21;94013.78;6098771;23;20029;-90
2020/12/18 13:11:39;;;;;;;38.75;15.80;;;;;;;5.12;95.54;94033.09;6099004;23;20019;-90
2020/12/18 13:14:06;;;;;;;18.25;8.80;;;;;;;4.55;96.08;93981.84;6099324;23;20018;-90
2020/12/18 13:20:38;;;;;;;37.70;12.77;;;;;;;4.85;97.15;94038.25;6099008;23;20056;-90
2020/12/18 13:26:46;;;;;;;24.08;11.10;;;;;;;4.88;97.06;94043.06;6098819;23;20029;-89
2020/12/18 13:29:13;;;;;;;19.38;9.93;;;;;;;4.98;96.60;94037.84;6099578;23;20019;-89
2020/12/18 13:31:39;;;;;;;;;;;;;;;5.05;95.44;94046.44;6099511;23;20022;-89
2020/12/18 13:34:43;;;;;;;16.40;9.10;;;;;;;4.98;95.82;94047.22;6098326;23;19917;-90
2020/12/18 13:40:47;;;;;;;22.67;10.57;;;;;;;5.22;95.55;94033.75;6098510;23;20033;-89
2020/12/18 13:47:13;;;;;;;23.98;13.30;;;;;;;5.46;93.91;94038.09;6118945;23;20326;-89
2020/12/18 13:56:34;;;;;;;30.92;12.57;;;;;;;5.41;92.78;94032.66;6158048;23;20018;-89
2020/12/18 14:02:25;;;;;;;30.52;11.68;;;;;;;5.47;90.51;94039.69;6157105;23;20504;-89
2020/12/18 14:08:13;;;;;;;25.63;12.43;;;;;;;5.66;89.78;94040.34;6157061;23;20024;-91